createdAt,value
2017-04-18T00:00:32.750Z,3.32
2017-04-18T00:01:33.315Z,3.36
2017-04-18T00:02:33.881Z,3.42
2017-04-18T00:03:34.447Z,3.41
2017-04-18T00:04:35.028Z,3.34
2017-04-18T00:05:35.609Z,3.36
2017-04-18T00:06:36.178Z,3.36
2017-04-18T00:07:36.743Z,3.42
2017-04-18T00:08:37.309Z,3.37
2017-04-18T00:09:37.889Z,3.34
2017-04-18T00:10:38.456Z,3.44
2017-04-18T00:11:39.025Z,3.28
2017-04-18T00:12:39.805Z,3.44
2017-04-18T00:13:40.371Z,3.31
2017-04-18T00:14:40.935Z,3.36
2017-04-18T00:15:41.500Z,3.44
2017-04-18T00:16:42.079Z,3.34
2017-04-18T00:17:42.644Z,3.36
2017-04-18T00:18:43.209Z,3.34
2017-04-18T00:19:43.775Z,3.37
2017-04-18T00:20:44.341Z,3.36
2017-04-18T00:21:44.906Z,3.36
2017-04-18T00:22:45.471Z,3.36
2017-04-18T00:23:46.036Z,3.44
2017-04-18T00:24:46.618Z,3.31
2017-04-18T00:25:47.184Z,3.32
2017-04-18T00:26:47.749Z,3.31
2017-04-18T00:27:48.514Z,3.31
2017-04-18T00:28:49.081Z,3.41
2017-04-18T00:29:49.649Z,3.32
2017-04-18T00:30:50.214Z,3.36
2017-04-18T00:31:50.780Z,3.29
2017-04-18T00:32:51.346Z,3.41
2017-04-18T00:33:51.911Z,3.31
2017-04-18T00:34:52.477Z,3.37
2017-04-18T00:35:53.042Z,3.34
2017-04-18T00:36:53.609Z,3.29
2017-04-18T00:37:54.177Z,3.36
2017-04-18T00:38:54.748Z,3.32
2017-04-18T00:39:55.314Z,3.40
2017-04-18T00:40:55.880Z,3.34
2017-04-18T00:41:56.446Z,3.23
2017-04-18T00:42:57.227Z,3.36
2017-04-18T00:43:57.793Z,3.22
2017-04-18T00:44:58.374Z,3.22
2017-04-18T00:45:58.939Z,3.14
2017-04-18T00:46:59.505Z,3.19
2017-04-18T00:48:00.070Z,3.19
2017-04-18T00:49:00.639Z,3.22
2017-04-18T00:50:01.205Z,3.11
2017-04-18T00:51:01.772Z,3.13
2017-04-18T00:52:02.337Z,3.11
2017-04-18T00:53:02.903Z,3.14
2017-04-18T00:54:03.469Z,3.08
2017-04-18T00:55:04.035Z,3.04
2017-04-18T00:56:04.601Z,3.04
2017-04-18T00:57:05.166Z,3.01
2017-04-18T00:58:05.975Z,2.90
2017-04-18T00:59:06.514Z,2.97
2017-04-18T01:00:07.094Z,2.98
2017-04-18T01:01:07.660Z,2.97
2017-04-18T01:02:08.226Z,2.95
2017-04-18T01:03:08.793Z,2.95
2017-04-18T01:04:09.359Z,2.92
2017-04-18T01:05:09.930Z,2.97
2017-04-18T01:06:10.495Z,2.95
2017-04-18T01:07:11.075Z,2.95
2017-04-18T01:08:11.644Z,2.92
2017-04-18T01:09:12.210Z,2.85
2017-04-18T01:10:12.775Z,2.82
2017-04-18T01:11:13.341Z,2.87
2017-04-18T01:12:13.908Z,2.92
2017-04-18T01:13:14.675Z,2.80
2017-04-18T01:14:15.242Z,2.82
2017-04-18T01:15:15.808Z,2.79
2017-04-18T01:16:16.389Z,2.72
2017-04-18T01:17:16.969Z,2.71
2017-04-18T01:18:17.538Z,2.74
2017-04-18T01:19:18.109Z,2.69
2017-04-18T01:20:18.670Z,2.71
2017-04-18T01:21:19.235Z,2.67
2017-04-18T01:22:19.800Z,2.68
2017-04-18T01:23:20.365Z,2.65
2017-04-18T01:24:20.931Z,2.56
2017-04-18T01:25:21.511Z,2.54
2017-04-18T01:26:22.077Z,2.69
2017-04-18T01:27:22.741Z,2.71
2017-04-18T01:28:23.509Z,2.61
2017-04-18T01:29:24.073Z,2.67
2017-04-18T01:30:24.639Z,2.62
2017-04-18T01:31:25.206Z,2.65
2017-04-18T01:32:25.773Z,2.54
2017-04-18T01:33:26.340Z,2.56
2017-04-18T01:34:26.907Z,2.60
2017-04-18T01:35:27.474Z,2.61
2017-04-18T01:36:28.039Z,2.64
2017-04-18T01:37:28.604Z,2.56
2017-04-18T01:38:29.170Z,2.54
2017-04-18T01:39:29.751Z,2.57
2017-04-18T01:40:30.331Z,2.57
2017-04-18T01:41:30.897Z,2.60
2017-04-18T01:42:31.464Z,2.62
2017-04-18T01:43:32.231Z,2.61
2017-04-18T01:44:32.799Z,2.54
2017-04-18T01:45:33.379Z,2.62
2017-04-18T01:46:33.943Z,2.56
2017-04-18T01:47:34.510Z,2.54
2017-04-18T01:48:35.076Z,2.57
2017-04-18T01:49:35.643Z,2.57
2017-04-18T01:50:36.208Z,2.56
2017-04-18T01:51:36.773Z,2.60
2017-04-18T01:52:37.338Z,2.61
2017-04-18T01:53:37.904Z,2.64
2017-04-18T01:54:38.470Z,2.60
2017-04-18T01:55:39.034Z,2.69
2017-04-18T01:56:39.598Z,2.61
2017-04-18T01:57:40.162Z,2.71
2017-04-18T01:58:40.931Z,2.67
2017-04-18T01:59:41.492Z,2.60
2017-04-18T02:00:42.056Z,2.71
2017-04-18T02:01:42.624Z,2.65
2017-04-18T02:02:43.188Z,2.67
2017-04-18T02:03:43.755Z,2.57
2017-04-18T02:04:44.319Z,2.60
2017-04-18T02:05:44.885Z,2.56
2017-04-18T02:06:45.464Z,2.57
2017-04-18T02:07:46.042Z,2.57
2017-04-18T02:08:46.605Z,2.61
2017-04-18T02:09:47.170Z,2.56
2017-04-18T02:10:47.735Z,2.67
2017-04-18T02:11:48.304Z,2.60
2017-04-18T02:12:48.869Z,2.56
2017-04-18T02:13:49.435Z,2.53
2017-04-18T02:14:50.000Z,2.60
2017-04-18T02:15:50.566Z,2.60
2017-04-18T02:16:51.129Z,2.53
2017-04-18T02:17:51.696Z,2.54
2017-04-18T02:18:52.277Z,2.54
2017-04-18T02:19:52.841Z,2.56
2017-04-18T02:20:53.407Z,2.54
2017-04-18T02:21:54.013Z,2.53
2017-04-18T02:22:54.579Z,2.50
2017-04-18T02:23:55.142Z,2.44
2017-04-18T02:24:55.707Z,2.43
2017-04-18T02:25:56.271Z,2.36
2017-04-18T02:26:56.835Z,2.43
2017-04-18T02:27:57.399Z,2.39
2017-04-18T02:28:57.964Z,2.43
2017-04-18T02:29:58.530Z,2.42
2017-04-18T02:30:59.093Z,2.42
2017-04-18T02:31:59.658Z,2.38
2017-04-18T02:33:00.221Z,2.38
2017-04-18T02:34:00.785Z,2.32
2017-04-18T02:35:01.349Z,2.29
2017-04-18T02:36:01.913Z,2.28
2017-04-18T02:37:02.478Z,2.33
2017-04-18T02:38:03.044Z,2.26
2017-04-18T02:39:03.811Z,2.33
2017-04-18T02:40:04.374Z,2.26
2017-04-18T02:41:04.938Z,2.28
2017-04-18T02:42:05.503Z,2.28
2017-04-18T02:43:06.068Z,2.26
2017-04-18T02:44:06.633Z,2.31
2017-04-18T02:45:07.196Z,2.32
2017-04-18T02:46:07.759Z,2.32
2017-04-18T02:47:08.325Z,2.32
2017-04-18T02:48:08.888Z,2.24
2017-04-18T02:49:09.452Z,2.31
2017-04-18T02:50:10.017Z,2.32
2017-04-18T02:51:10.581Z,2.28
2017-04-18T02:52:11.144Z,2.20
2017-04-18T02:53:11.710Z,2.28
2017-04-18T02:54:12.475Z,2.17
2017-04-18T02:55:13.041Z,2.22
2017-04-18T02:56:13.605Z,2.28
2017-04-18T02:57:14.170Z,2.25
2017-04-18T02:58:14.733Z,2.22
2017-04-18T02:59:15.298Z,2.26
2017-04-18T03:00:15.863Z,2.25
2017-04-18T03:01:16.429Z,2.24
2017-04-18T03:02:16.990Z,2.20
2017-04-18T03:03:17.557Z,2.15
2017-04-18T03:04:18.118Z,2.18
2017-04-18T03:05:18.683Z,2.25
2017-04-18T03:06:19.247Z,2.24
2017-04-18T03:07:19.825Z,2.13
2017-04-18T03:08:20.391Z,2.15
2017-04-18T03:09:20.956Z,2.22
2017-04-18T03:10:21.522Z,2.06
2017-04-18T03:11:22.089Z,2.06
2017-04-18T03:12:22.650Z,2.18
2017-04-18T03:13:23.214Z,2.07
2017-04-18T03:14:23.778Z,2.08
2017-04-18T03:15:24.341Z,2.10
2017-04-18T03:16:24.905Z,2.13
2017-04-18T03:17:25.470Z,2.07
2017-04-18T03:18:26.034Z,2.08
2017-04-18T03:19:26.600Z,2.06
2017-04-18T03:20:27.166Z,2.08
2017-04-18T03:21:27.730Z,2.06
2017-04-18T03:22:28.294Z,2.07
2017-04-18T03:23:28.862Z,2.06
2017-04-18T03:24:29.627Z,2.06
2017-04-18T03:25:30.193Z,2.06
2017-04-18T03:26:30.757Z,2.10
2017-04-18T03:27:31.323Z,2.13
2017-04-18T03:28:31.889Z,2.06
2017-04-18T03:29:32.455Z,2.08
2017-04-18T03:30:33.022Z,2.11
2017-04-18T03:31:33.584Z,2.02
2017-04-18T03:32:34.148Z,1.97
2017-04-18T03:33:34.712Z,1.92
2017-04-18T03:34:35.291Z,1.94
2017-04-18T03:35:35.855Z,1.94
2017-04-18T03:36:36.420Z,1.92
2017-04-18T03:37:36.987Z,1.99
2017-04-18T03:38:37.549Z,1.95
2017-04-18T03:39:38.312Z,1.99
2017-04-18T03:40:38.876Z,1.99
2017-04-18T03:41:39.442Z,1.99
2017-04-18T03:42:40.009Z,2.02
2017-04-18T03:43:40.589Z,1.89
2017-04-18T03:44:41.151Z,1.95
2017-04-18T03:45:41.715Z,2.02
2017-04-18T03:46:42.278Z,2.02
2017-04-18T03:47:42.842Z,1.95
2017-04-18T03:48:43.407Z,1.94
2017-04-18T03:49:43.970Z,1.99
2017-04-18T03:50:44.533Z,1.91
2017-04-18T03:51:45.097Z,1.81
2017-04-18T03:52:45.661Z,1.91
2017-04-18T03:53:46.228Z,1.94
2017-04-18T03:54:46.792Z,1.92
2017-04-18T03:55:47.358Z,1.92
2017-04-18T03:56:47.922Z,1.77
2017-04-18T03:57:48.489Z,1.87
2017-04-18T03:58:49.054Z,1.95
2017-04-18T03:59:49.620Z,1.88
2017-04-18T04:00:50.184Z,1.78
2017-04-18T04:01:50.749Z,1.89
2017-04-18T04:02:51.312Z,1.92
2017-04-18T04:03:51.876Z,1.91
2017-04-18T04:04:52.440Z,1.85
2017-04-18T04:05:53.003Z,1.88
2017-04-18T04:06:53.567Z,1.92
2017-04-18T04:07:54.132Z,1.91
2017-04-18T04:08:54.696Z,1.88
2017-04-18T04:09:55.261Z,1.89
2017-04-18T04:10:55.824Z,1.88
2017-04-18T04:11:56.395Z,1.77
2017-04-18T04:12:56.957Z,1.78
2017-04-18T04:13:57.523Z,1.91
2017-04-18T04:14:58.289Z,1.76
2017-04-18T04:15:58.852Z,1.85
2017-04-18T04:16:59.416Z,1.78
2017-04-18T04:17:59.980Z,1.84
2017-04-18T04:19:00.544Z,1.84
2017-04-18T04:20:01.107Z,1.85
2017-04-18T04:21:01.672Z,1.81
2017-04-18T04:22:02.250Z,1.77
2017-04-18T04:23:02.815Z,1.77
2017-04-18T04:24:03.380Z,1.73
2017-04-18T04:25:03.963Z,1.73
2017-04-18T04:26:04.527Z,1.68
2017-04-18T04:27:05.091Z,1.74
2017-04-18T04:28:05.722Z,1.73
2017-04-18T04:29:06.288Z,1.71
2017-04-18T04:30:06.852Z,1.71
2017-04-18T04:31:07.417Z,1.78
2017-04-18T04:32:07.984Z,1.78
2017-04-18T04:33:08.548Z,1.76
2017-04-18T04:34:09.116Z,1.73
2017-04-18T04:35:09.682Z,1.73
2017-04-18T04:36:10.250Z,1.76
2017-04-18T04:37:10.814Z,1.84
2017-04-18T04:38:11.379Z,1.78
2017-04-18T04:39:11.945Z,1.81
2017-04-18T04:40:12.710Z,1.88
2017-04-18T04:41:13.276Z,1.87
2017-04-18T04:42:13.841Z,1.84
2017-04-18T04:43:14.421Z,1.89
2017-04-18T04:44:14.986Z,1.80
2017-04-18T04:45:15.553Z,1.80
2017-04-18T04:46:16.131Z,1.81
2017-04-18T04:47:16.697Z,1.76
2017-04-18T04:48:17.265Z,1.84
2017-04-18T04:49:17.833Z,1.92
2017-04-18T04:50:18.396Z,1.78
2017-04-18T04:51:18.961Z,1.76
2017-04-18T04:52:19.525Z,1.87
2017-04-18T04:53:20.092Z,1.85
2017-04-18T04:54:20.658Z,1.87
2017-04-18T04:55:21.238Z,1.87
2017-04-18T04:56:21.807Z,1.85
2017-04-18T04:57:22.374Z,1.92
2017-04-18T04:58:22.942Z,1.91
2017-04-18T04:59:23.508Z,1.92
2017-04-18T05:00:24.075Z,1.89
2017-04-18T05:01:24.641Z,1.88
2017-04-18T05:02:25.203Z,1.78
2017-04-18T05:03:25.772Z,1.87
2017-04-18T05:04:26.338Z,1.94
2017-04-18T05:05:26.908Z,1.97
2017-04-18T05:06:27.474Z,1.97
2017-04-18T05:07:28.040Z,1.95
2017-04-18T05:08:28.607Z,2.00
2017-04-18T05:09:29.173Z,1.99
2017-04-18T05:10:29.741Z,2.00
2017-04-18T05:11:30.354Z,1.95
2017-04-18T05:12:30.920Z,2.08
2017-04-18T05:13:31.486Z,2.08
2017-04-18T05:14:32.059Z,2.06
2017-04-18T05:15:32.622Z,2.06
2017-04-18T05:16:33.188Z,2.08
2017-04-18T05:17:33.754Z,2.10
2017-04-18T05:18:34.320Z,2.14
2017-04-18T05:19:34.886Z,2.14
2017-04-18T05:20:35.451Z,2.15
2017-04-18T05:21:36.020Z,2.20
2017-04-18T05:22:36.607Z,2.25
2017-04-18T05:23:37.169Z,2.26
2017-04-18T05:24:37.735Z,2.24
2017-04-18T05:25:38.309Z,2.25
2017-04-18T05:26:38.871Z,2.18
2017-04-18T05:27:39.439Z,2.29
2017-04-18T05:28:40.007Z,2.29
2017-04-18T05:29:40.575Z,2.32
2017-04-18T05:30:41.144Z,2.31
2017-04-18T05:31:41.712Z,2.26
2017-04-18T05:32:42.279Z,2.36
2017-04-18T05:33:42.848Z,2.39
2017-04-18T05:34:43.418Z,2.53
2017-04-18T05:35:43.985Z,2.51
2017-04-18T05:36:44.551Z,2.51
2017-04-18T05:37:45.117Z,2.57
2017-04-18T05:38:45.685Z,2.56
2017-04-18T05:39:46.251Z,2.57
2017-04-18T05:40:47.020Z,2.65
2017-04-18T05:41:47.586Z,2.57
2017-04-18T05:42:48.154Z,2.64
2017-04-18T05:43:48.721Z,2.60
2017-04-18T05:44:49.299Z,2.60
2017-04-18T05:45:49.869Z,2.60
2017-04-18T05:46:50.434Z,2.64
2017-04-18T05:47:51.001Z,2.69
2017-04-18T05:48:51.568Z,2.83
2017-04-18T05:49:52.134Z,2.72
2017-04-18T05:50:52.711Z,2.67
2017-04-18T05:51:53.269Z,2.72
2017-04-18T05:52:53.838Z,2.69
2017-04-18T05:53:54.409Z,2.75
2017-04-18T05:54:54.971Z,2.69
2017-04-18T05:55:55.539Z,2.74
2017-04-18T05:56:56.103Z,2.79
2017-04-18T05:57:56.671Z,2.74
2017-04-18T05:58:57.239Z,2.83
2017-04-18T05:59:57.809Z,2.80
2017-04-18T06:00:58.377Z,2.85
2017-04-18T06:01:58.944Z,2.86
2017-04-18T06:02:59.514Z,2.98
2017-04-18T06:04:00.082Z,2.89
2017-04-18T06:05:00.650Z,2.93
2017-04-18T06:06:01.218Z,2.95
2017-04-18T06:07:01.788Z,3.00
2017-04-18T06:08:02.358Z,3.01
2017-04-18T06:09:02.927Z,2.93
2017-04-18T06:10:03.510Z,3.07
2017-04-18T06:11:04.078Z,3.04
2017-04-18T06:12:04.646Z,3.11
2017-04-18T06:13:05.214Z,3.00
2017-04-18T06:14:05.788Z,3.08
2017-04-18T06:15:06.354Z,3.04
2017-04-18T06:16:06.925Z,3.11
2017-04-18T06:17:07.492Z,3.34
2017-04-18T06:18:08.058Z,3.34
2017-04-18T06:19:08.627Z,3.29
2017-04-18T06:20:09.195Z,3.28
2017-04-18T06:21:09.762Z,3.55
2017-04-18T06:22:10.332Z,3.41
2017-04-18T06:23:10.913Z,3.48
2017-04-18T06:24:11.482Z,3.53
2017-04-18T06:25:12.051Z,3.55
2017-04-18T06:26:12.619Z,3.58
2017-04-18T06:27:13.187Z,3.56
2017-04-18T06:28:13.757Z,3.66
2017-04-18T06:29:14.324Z,3.59
2017-04-18T06:30:14.894Z,3.66
2017-04-18T06:31:15.479Z,3.70
2017-04-18T06:32:16.047Z,3.53
2017-04-18T06:33:16.614Z,3.66
2017-04-18T06:34:17.184Z,3.84
2017-04-18T06:35:17.750Z,3.94
2017-04-18T06:36:18.321Z,4.05
2017-04-18T06:37:18.888Z,4.05
2017-04-18T06:38:19.457Z,3.87
2017-04-18T06:39:20.026Z,3.78
2017-04-18T06:40:20.608Z,3.81
2017-04-18T06:41:21.176Z,4.06
2017-04-18T06:42:21.746Z,4.06
2017-04-18T06:43:22.328Z,3.92
2017-04-18T06:44:22.896Z,3.84
2017-04-18T06:45:23.464Z,3.95
2017-04-18T06:46:24.033Z,3.99
2017-04-18T06:47:24.601Z,4.02
2017-04-18T06:48:25.171Z,4.06
2017-04-18T06:49:25.738Z,3.98
2017-04-18T06:50:26.307Z,4.05
2017-04-18T06:51:26.875Z,4.16
2017-04-18T06:52:27.456Z,4.19
2017-04-18T06:53:28.023Z,4.28
2017-04-18T06:54:28.593Z,4.14
2017-04-18T06:55:29.163Z,4.05
2017-04-18T06:56:29.934Z,3.99
2017-04-18T06:57:30.517Z,4.06
2017-04-18T06:58:31.099Z,4.13
2017-04-18T06:59:31.668Z,4.19
2017-04-18T07:00:32.247Z,4.28
2017-04-18T07:01:32.815Z,4.20
2017-04-18T07:02:33.397Z,4.28
2017-04-18T07:03:33.977Z,4.31
2017-04-18T07:04:34.546Z,4.24
2017-04-18T07:05:35.115Z,4.19
2017-04-18T07:06:35.885Z,4.20
2017-04-18T07:07:36.465Z,4.32
2017-04-18T07:08:37.032Z,4.30
2017-04-18T07:09:37.601Z,4.37
2017-04-18T07:10:38.170Z,4.45
2017-04-18T07:11:38.738Z,4.52
2017-04-18T07:12:39.324Z,4.60
2017-04-18T07:13:39.887Z,4.58
2017-04-18T07:14:40.489Z,4.75
2017-04-18T07:15:41.028Z,4.92
2017-04-18T07:16:41.596Z,4.86
2017-04-18T07:17:42.164Z,4.66
2017-04-18T07:18:42.731Z,4.73
2017-04-18T07:19:43.302Z,4.75
2017-04-18T07:20:43.873Z,4.84
2017-04-18T07:21:44.640Z,4.92
2017-04-18T07:22:45.214Z,5.23
2017-04-18T07:23:45.778Z,5.08
2017-04-18T07:24:46.350Z,5.02
2017-04-18T07:25:46.918Z,5.14
2017-04-18T07:26:47.487Z,5.14
2017-04-18T07:27:48.058Z,5.23
2017-04-18T07:28:48.628Z,5.33
2017-04-18T07:29:49.197Z,5.43
2017-04-18T07:30:49.767Z,5.48
2017-04-18T07:31:50.336Z,5.48
2017-04-18T07:32:50.914Z,5.36
2017-04-18T07:33:51.483Z,5.65
2017-04-18T07:34:52.064Z,5.50
2017-04-18T07:35:52.633Z,5.41
2017-04-18T07:36:53.404Z,5.50
2017-04-18T07:37:53.973Z,5.64
2017-04-18T07:38:54.542Z,5.72
2017-04-18T07:39:55.126Z,5.72
2017-04-18T07:40:55.696Z,6.05
2017-04-18T07:41:56.267Z,5.83
2017-04-18T07:42:56.835Z,5.61
2017-04-18T07:43:57.404Z,5.89
2017-04-18T07:44:57.975Z,6.12
2017-04-18T07:45:58.545Z,6.12
2017-04-18T07:46:59.115Z,6.38
2017-04-18T07:47:59.686Z,6.27
2017-04-18T07:49:00.269Z,6.14
2017-04-18T07:50:00.840Z,6.26
2017-04-18T07:51:01.407Z,6.14
2017-04-18T07:52:02.178Z,6.05
2017-04-18T07:53:02.745Z,6.20
2017-04-18T07:54:03.314Z,6.35
2017-04-18T07:55:03.883Z,6.33
2017-04-18T07:56:04.454Z,6.24
2017-04-18T07:57:05.024Z,6.28
2017-04-18T07:58:05.594Z,6.26
2017-04-18T07:59:06.165Z,6.41
2017-04-18T08:00:06.733Z,6.62
2017-04-18T08:01:07.303Z,6.62
2017-04-18T08:02:07.874Z,6.85
2017-04-18T08:03:08.443Z,6.89
2017-04-18T08:04:09.015Z,6.63
2017-04-18T08:05:09.582Z,6.66
2017-04-18T08:06:10.150Z,6.81
2017-04-18T08:07:10.922Z,6.64
2017-04-18T08:08:11.490Z,6.74
2017-04-18T08:09:12.061Z,6.57
2017-04-18T08:10:12.630Z,6.74
2017-04-18T08:11:13.203Z,6.60
2017-04-18T08:12:13.773Z,6.64
2017-04-18T08:13:14.342Z,6.51
2017-04-18T08:14:14.913Z,6.60
2017-04-18T08:15:15.482Z,6.72
2017-04-18T08:16:16.064Z,6.60
2017-04-18T08:17:16.642Z,6.70
2017-04-18T08:18:17.205Z,6.63
2017-04-18T08:19:17.775Z,6.41
2017-04-18T08:20:18.344Z,6.52
2017-04-18T08:21:18.916Z,6.56
2017-04-18T08:22:19.687Z,6.31
2017-04-18T08:23:20.257Z,6.54
2017-04-18T08:24:21.001Z,6.56
2017-04-18T08:25:21.571Z,6.70
2017-04-18T08:26:22.140Z,6.70
2017-04-18T08:27:22.710Z,6.66
2017-04-18T08:28:23.281Z,6.72
2017-04-18T08:29:23.851Z,6.79
2017-04-18T08:30:24.420Z,6.88
2017-04-18T08:31:24.991Z,7.07
2017-04-18T08:32:25.560Z,7.05
2017-04-18T08:33:26.129Z,7.05
2017-04-18T08:34:26.700Z,7.14
2017-04-18T08:35:27.273Z,7.03
2017-04-18T08:36:27.841Z,6.97
2017-04-18T08:37:28.411Z,6.87
2017-04-18T08:38:28.978Z,6.78
2017-04-18T08:39:29.551Z,6.77
2017-04-18T08:40:30.120Z,6.60
2017-04-18T08:41:30.692Z,6.51
2017-04-18T08:42:31.462Z,6.51
2017-04-18T08:43:32.034Z,6.57
2017-04-18T08:44:32.604Z,6.46
2017-04-18T08:45:33.174Z,6.56
2017-04-18T08:46:33.758Z,6.49
2017-04-18T08:47:34.328Z,6.57
2017-04-18T08:48:34.904Z,6.36
2017-04-18T08:49:35.472Z,6.41
2017-04-18T08:50:36.045Z,6.33
2017-04-18T08:51:36.610Z,6.30
2017-04-18T08:52:37.179Z,6.33
2017-04-18T08:53:37.750Z,6.45
2017-04-18T08:54:38.325Z,6.62
2017-04-18T08:55:38.896Z,6.52
2017-04-18T08:56:39.463Z,6.59
2017-04-18T08:57:40.029Z,6.56
2017-04-18T08:58:40.602Z,6.67
2017-04-18T08:59:41.173Z,6.56
2017-04-18T09:00:41.742Z,6.63
2017-04-18T09:01:42.311Z,6.60
2017-04-18T09:02:43.081Z,6.63
2017-04-18T09:03:43.651Z,6.45
2017-04-18T09:04:44.221Z,6.44
2017-04-18T09:05:44.789Z,6.60
2017-04-18T09:06:45.361Z,6.59
2017-04-18T09:07:45.931Z,6.57
2017-04-18T09:08:46.504Z,6.70
2017-04-18T09:09:47.072Z,6.72
2017-04-18T09:10:47.642Z,6.66
2017-04-18T09:11:48.214Z,6.70
2017-04-18T09:12:48.985Z,6.56
2017-04-18T09:13:49.553Z,6.62
2017-04-18T09:14:50.123Z,6.63
2017-04-18T09:15:50.706Z,6.67
2017-04-18T09:16:51.279Z,6.78
2017-04-18T09:17:51.848Z,6.75
2017-04-18T09:18:52.420Z,6.66
2017-04-18T09:19:52.990Z,6.77
2017-04-18T09:20:53.560Z,6.77
2017-04-18T09:21:54.131Z,6.67
2017-04-18T09:22:54.701Z,6.42
2017-04-18T09:23:55.271Z,6.59
2017-04-18T09:24:55.841Z,6.54
2017-04-18T09:25:56.411Z,6.39
2017-04-18T09:26:56.982Z,6.27
2017-04-18T09:27:57.550Z,6.05
2017-04-18T09:28:58.125Z,6.26
2017-04-18T09:29:58.689Z,6.05
2017-04-18T09:30:59.272Z,5.98
2017-04-18T09:31:59.842Z,6.02
2017-04-18T09:33:00.411Z,6.08
2017-04-18T09:34:00.982Z,5.94
2017-04-18T09:35:01.564Z,5.90
2017-04-18T09:36:02.133Z,5.80
2017-04-18T09:37:02.703Z,5.82
2017-04-18T09:38:03.274Z,5.80
2017-04-18T09:39:03.855Z,5.76
2017-04-18T09:40:04.426Z,5.66
2017-04-18T09:41:04.996Z,5.72
2017-04-18T09:42:05.566Z,5.75
2017-04-18T09:43:06.345Z,5.90
2017-04-18T09:44:06.914Z,6.02
2017-04-18T09:45:07.484Z,6.09
2017-04-18T09:46:08.055Z,6.05
2017-04-18T09:47:08.625Z,6.26
2017-04-18T09:48:09.194Z,6.07
2017-04-18T09:49:09.764Z,6.22
2017-04-18T09:50:10.336Z,6.27
2017-04-18T09:51:10.908Z,6.36
2017-04-18T09:52:11.476Z,6.39
2017-04-18T09:53:12.046Z,6.39
2017-04-18T09:54:12.618Z,6.46
2017-04-18T09:55:13.188Z,6.49
2017-04-18T09:56:13.759Z,6.85
2017-04-18T09:57:14.327Z,6.84
2017-04-18T09:58:14.897Z,6.79
2017-04-18T09:59:15.470Z,6.66
2017-04-18T10:00:16.039Z,6.70
2017-04-18T10:01:16.609Z,6.77
2017-04-18T10:02:17.196Z,6.72
2017-04-18T10:03:17.762Z,6.56
2017-04-18T10:04:18.331Z,6.60
2017-04-18T10:05:18.900Z,6.56
2017-04-18T10:06:19.470Z,6.49
2017-04-18T10:07:20.041Z,6.62
2017-04-18T10:08:20.610Z,6.60
2017-04-18T10:09:21.181Z,6.59
2017-04-18T10:10:21.750Z,6.78
2017-04-18T10:11:22.320Z,6.62
2017-04-18T10:12:22.892Z,6.70
2017-04-18T10:13:23.461Z,6.60
2017-04-18T10:14:24.030Z,6.60
2017-04-18T10:15:24.599Z,6.60
2017-04-18T10:16:25.183Z,6.75
2017-04-18T10:17:25.752Z,6.66
2017-04-18T10:18:26.322Z,6.66
2017-04-18T10:19:26.893Z,6.85
2017-04-18T10:20:27.467Z,6.62
2017-04-18T10:21:28.036Z,6.67
2017-04-18T10:22:28.606Z,6.92
2017-04-18T10:23:29.180Z,7.17
2017-04-18T10:24:29.748Z,7.53
2017-04-18T10:25:30.320Z,7.47
2017-04-18T10:26:30.904Z,7.32
2017-04-18T10:27:31.477Z,7.31
2017-04-18T10:28:32.048Z,7.47
2017-04-18T10:29:32.621Z,7.15
2017-04-18T10:30:33.196Z,7.70
2017-04-18T10:31:33.778Z,7.94
2017-04-18T10:32:34.348Z,8.12
2017-04-18T10:33:34.921Z,7.87
2017-04-18T10:34:35.500Z,7.50
2017-04-18T10:35:36.071Z,7.90
2017-04-18T10:36:36.645Z,7.76
2017-04-18T10:37:37.215Z,7.94
2017-04-18T10:38:37.787Z,8.26
2017-04-18T10:39:38.359Z,8.51
2017-04-18T10:40:38.932Z,8.41
2017-04-18T10:41:39.505Z,8.13
2017-04-18T10:42:40.075Z,7.85
2017-04-18T10:43:40.846Z,8.06
2017-04-18T10:44:41.418Z,8.36
2017-04-18T10:45:42.003Z,8.58
2017-04-18T10:46:42.575Z,8.73
2017-04-18T10:47:43.147Z,8.49
2017-04-18T10:48:43.717Z,8.31
2017-04-18T10:49:44.302Z,8.30
2017-04-18T10:50:44.874Z,8.10
2017-04-18T10:51:45.444Z,7.75
2017-04-18T10:52:46.016Z,7.75
2017-04-18T10:53:46.588Z,7.47
2017-04-18T10:54:47.159Z,7.66
2017-04-18T10:55:47.733Z,7.51
2017-04-18T10:56:48.303Z,7.51
2017-04-18T10:57:48.874Z,7.66
2017-04-18T10:58:49.453Z,7.85
2017-04-18T10:59:50.023Z,7.85
2017-04-18T11:00:50.594Z,7.77
2017-04-18T11:01:51.170Z,7.97
2017-04-18T11:02:51.736Z,8.28
2017-04-18T11:03:52.308Z,7.97
2017-04-18T11:04:52.879Z,8.15
2017-04-18T11:05:53.450Z,8.30
2017-04-18T11:06:54.021Z,8.30
2017-04-18T11:07:54.592Z,8.33
2017-04-18T11:08:55.164Z,8.44
2017-04-18T11:09:55.736Z,7.97
2017-04-18T11:10:56.319Z,8.20
2017-04-18T11:11:56.892Z,8.10
2017-04-18T11:12:57.464Z,8.16
2017-04-18T11:13:58.036Z,8.09
2017-04-18T11:14:58.610Z,7.76
2017-04-18T11:15:59.193Z,7.66
2017-04-18T11:16:59.764Z,7.72
2017-04-18T11:18:00.338Z,7.67
2017-04-18T11:19:00.921Z,7.54
2017-04-18T11:20:01.491Z,7.61
2017-04-18T11:21:02.063Z,7.51
2017-04-18T11:22:02.633Z,7.54
2017-04-18T11:23:03.219Z,7.43
2017-04-18T11:24:03.789Z,7.58
2017-04-18T11:25:04.361Z,7.54
2017-04-18T11:26:04.934Z,7.47
2017-04-18T11:27:05.506Z,7.43
2017-04-18T11:28:06.077Z,7.66
2017-04-18T11:29:06.647Z,7.70
2017-04-18T11:30:07.231Z,7.53
2017-04-18T11:31:07.802Z,7.75
2017-04-18T11:32:08.373Z,7.70
2017-04-18T11:33:08.947Z,7.66
2017-04-18T11:34:09.531Z,7.83
2017-04-18T11:35:10.112Z,7.51
2017-04-18T11:36:10.683Z,7.69
2017-04-18T11:37:11.254Z,7.70
2017-04-18T11:38:11.825Z,7.66
2017-04-18T11:39:12.598Z,7.87
2017-04-18T11:40:13.173Z,7.72
2017-04-18T11:41:13.744Z,7.60
2017-04-18T11:42:14.316Z,7.75
2017-04-18T11:43:14.901Z,7.42
2017-04-18T11:44:15.472Z,7.54
2017-04-18T11:45:16.045Z,7.36
2017-04-18T11:46:16.615Z,7.42
2017-04-18T11:47:17.186Z,7.56
2017-04-18T11:48:17.757Z,7.72
2017-04-18T11:49:18.326Z,7.61
2017-04-18T11:50:18.899Z,7.79
2017-04-18T11:51:19.469Z,7.83
2017-04-18T11:52:20.053Z,7.72
2017-04-18T11:53:20.628Z,7.82
2017-04-18T11:54:21.199Z,7.97
2017-04-18T11:55:21.771Z,8.08
2017-04-18T11:56:22.345Z,7.90
2017-04-18T11:57:22.915Z,8.08
2017-04-18T11:58:23.488Z,8.01
2017-04-18T11:59:24.058Z,8.03
2017-04-18T12:00:24.632Z,8.05
2017-04-18T12:01:25.206Z,8.03
2017-04-18T12:02:25.791Z,8.23
2017-04-18T12:03:26.367Z,8.44
2017-04-18T12:04:26.937Z,8.37
2017-04-18T12:05:27.511Z,8.46
2017-04-18T12:06:28.083Z,8.81
2017-04-18T12:07:28.657Z,8.87
2017-04-18T12:08:29.226Z,8.81
2017-04-18T12:09:29.799Z,8.85
2017-04-18T12:10:30.374Z,8.58
2017-04-18T12:11:30.946Z,8.46
2017-04-18T12:12:31.518Z,8.37
2017-04-18T12:13:32.092Z,8.12
2017-04-18T12:14:32.664Z,8.49
2017-04-18T12:15:33.235Z,8.41
2017-04-18T12:16:33.805Z,8.48
2017-04-18T12:17:34.376Z,8.48
2017-04-18T12:18:34.948Z,8.63
2017-04-18T12:19:35.733Z,8.41
2017-04-18T12:20:36.304Z,8.42
2017-04-18T12:21:36.888Z,8.56
2017-04-18T12:22:37.465Z,8.27
2017-04-18T12:23:38.034Z,8.46
2017-04-18T12:24:38.607Z,8.31
2017-04-18T12:25:39.178Z,8.38
2017-04-18T12:26:39.751Z,8.63
2017-04-18T12:27:40.324Z,8.33
2017-04-18T12:28:40.897Z,8.60
2017-04-18T12:29:41.471Z,8.63
2017-04-18T12:30:42.044Z,8.53
2017-04-18T12:31:42.616Z,8.27
2017-04-18T12:32:43.190Z,8.38
2017-04-18T12:33:43.763Z,8.52
2017-04-18T12:34:44.334Z,8.60
2017-04-18T12:35:44.905Z,8.27
2017-04-18T12:36:45.478Z,8.34
2017-04-18T12:37:46.051Z,8.49
2017-04-18T12:38:46.622Z,8.64
2017-04-18T12:39:47.193Z,8.19
2017-04-18T12:40:47.767Z,8.28
2017-04-18T12:41:48.336Z,8.42
2017-04-18T12:42:48.911Z,8.30
2017-04-18T12:43:49.484Z,8.34
2017-04-18T12:44:50.057Z,8.30
2017-04-18T12:45:50.632Z,8.41
2017-04-18T12:46:51.202Z,8.31
2017-04-18T12:47:51.772Z,8.44
2017-04-18T12:48:52.349Z,8.49
2017-04-18T12:49:53.116Z,8.51
2017-04-18T12:50:53.687Z,8.48
2017-04-18T12:51:54.260Z,8.33
2017-04-18T12:52:54.829Z,8.06
2017-04-18T12:53:55.401Z,7.82
2017-04-18T12:54:55.977Z,7.72
2017-04-18T12:55:56.546Z,7.51
2017-04-18T12:56:57.117Z,7.42
2017-04-18T12:57:57.691Z,7.24
2017-04-18T12:58:58.276Z,6.97
2017-04-18T12:59:58.847Z,7.05
2017-04-18T13:00:59.420Z,6.77
2017-04-18T13:01:59.991Z,6.79
2017-04-18T13:03:00.561Z,7.05
2017-04-18T13:04:01.132Z,7.14
2017-04-18T13:05:01.719Z,7.06
2017-04-18T13:06:02.287Z,7.17
2017-04-18T13:07:02.864Z,7.14
2017-04-18T13:08:03.431Z,7.10
2017-04-18T13:09:04.003Z,7.23
2017-04-18T13:10:04.775Z,7.48
2017-04-18T13:11:05.347Z,7.54
2017-04-18T13:12:05.917Z,7.70
2017-04-18T13:13:06.488Z,7.53
2017-04-18T13:14:07.075Z,7.79
2017-04-18T13:15:07.672Z,7.72
2017-04-18T13:16:08.220Z,7.82
2017-04-18T13:17:08.793Z,7.73
2017-04-18T13:18:09.364Z,7.70
2017-04-18T13:19:09.950Z,7.66
2017-04-18T13:20:10.720Z,7.80
2017-04-18T13:21:11.292Z,7.94
2017-04-18T13:22:11.864Z,7.93
2017-04-18T13:23:12.450Z,8.05
2017-04-18T13:24:13.021Z,7.80
2017-04-18T13:25:13.608Z,7.69
2017-04-18T13:26:14.194Z,8.30